tititudorancea.com
Station Historical Data
Daily Summary for June 23, 2018 Units:  Metric    English   Both
« Previous Day
Next Day »
Daily Weekly Monthly Yearly Custom
  High: Low: Average:
Temperature: -17.8 °C 3.5 °C 7.3 °C
Dew Point: -17.8 °C 2.4 °C 5.8 °C
Humidity: Humidity % 74 % 90 %
Wind Speed: 0 km/h 0 km/h 7.6 km/h
Wind Gust: 0 km/h - -
Wind:- - West
Pressure: 0 hPa 1024.9 hPa -
Precipitation: 2.03 mm    
Historical Graphs
 
 
Ararat weather Find more about Weather in Ararat, AU


 



 


Tabular Data for June 23, 2018
Time Temperature Dew Point Pressure Wind Wind Speed Wind Gust Humidity Rainfall Rate (Hourly)
-17.8 °C -17.8 °C 0 hPa Calm     Humidity % 0 mm
00:04 6.3 °C 4.9 °C 1026 hPa NNW 5.6 km/h 3.5 km/h 91 % 0 mm
00:09 6.3 °C 4.9 °C 1026 hPa NNW 5.6 km/h 5.1 km/h 91 % 0 mm
00:14 6.3 °C 4.8 °C 1025.6 hPa NW 6.4 km/h 3.5 km/h 90 % 0 mm
00:19 6.2 °C 4.7 °C 1026 hPa North 5.6 km/h 3.1 km/h 90 % 0 mm
00:24 6.1 °C 4.6 °C 1025.6 hPa NW 4.8 km/h 1.8 km/h 90 % 0 mm
00:29 5.9 °C 4.4 °C 1025.6 hPa North 5.6 km/h 2.7 km/h 90 % 0 mm
00:34 5.8 °C 4.1 °C 1025.6 hPa North 6.4 km/h 4.8 km/h 89 % 0 mm
00:39 5.6 °C 3.9 °C 1025.6 hPa NW 5.6 km/h 3.2 km/h 89 % 0 mm
00:44 5.2 °C 3.6 °C 1025.6 hPa NW 5.6 km/h 3.5 km/h 89 % 0 mm
00:49 4.8 °C 3.2 °C 1025.6 hPa North 5.6 km/h 3.5 km/h 89 % 0 mm
00:54 4.4 °C 2.8 °C 1025.6 hPa NW 5.6 km/h 4.7 km/h 89 % 0 mm
00:59 4.3 °C 2.8 °C 1025.6 hPa NW 5.6 km/h 4.5 km/h 90 % 0 mm
01:04 4.2 °C 2.9 °C 1025.6 hPa NNW 5.6 km/h 4.8 km/h 91 % 0 mm
01:09 4.2 °C 2.9 °C 1025.6 hPa NW 5.6 km/h 3.9 km/h 91 % 0 mm
01:14 4.2 °C 2.9 °C 1025.6 hPa NW 6.4 km/h 5.1 km/h 91 % 0 mm
01:19 4.3 °C 3.2 °C 1025.6 hPa North 7.4 km/h 5.6 km/h 92 % 0 mm
01:24 4.4 °C 3.2 °C 1025.6 hPa NW 6.4 km/h 4.7 km/h 92 % 0 mm
01:29 4.3 °C 3.1 °C 1025.6 hPa NNW 6.4 km/h 5.8 km/h 92 % 0 mm
01:34 4.3 °C 3.1 °C 1025.6 hPa NNW 8 km/h 5.6 km/h 92 % 0 mm
01:39 4.3 °C 3.1 °C 1025.6 hPa North 5.6 km/h 4.3 km/h 92 % 0 mm
01:44 4.3 °C 3.1 °C 1025.6 hPa NW 8 km/h 5.6 km/h 92 % 0 mm
01:49 4.2 °C 3 °C 1025.3 hPa North 9.7 km/h 6.6 km/h 92 % 0 mm
01:54 4.1 °C 2.9 °C 1025.3 hPa NW 7.4 km/h 6.6 km/h 92 % 0 mm
01:59 3.9 °C 2.7 °C 1025.3 hPa NNW 6.4 km/h 6.3 km/h 92 % 0 mm
02:04 3.7 °C 2.6 °C 1025.3 hPa NW 5.6 km/h 3.4 km/h 92 % 0 mm
02:09 3.6 °C 2.4 °C 1025.3 hPa NW 5.6 km/h 3.7 km/h 92 % 0 mm
02:14 3.6 °C 2.6 °C 1025.6 hPa NW 5.6 km/h 5 km/h 93 % 0 mm
02:19 3.6 °C 2.6 °C 1025.3 hPa NW 7.4 km/h 3.5 km/h 93 % 0 mm
02:24 3.7 °C 2.7 °C 1025.6 hPa NNW 5.6 km/h 3.5 km/h 93 % 0 mm
02:29 3.7 °C 2.7 °C 1025.6 hPa NW 5.6 km/h 5.6 km/h 93 % 0 mm
02:34 3.8 °C 2.8 °C 1025.3 hPa NW 7.4 km/h 6.6 km/h 93 % 0 mm
02:39 3.8 °C 2.7 °C 1025.3 hPa NNW 7.4 km/h 5.6 km/h 93 % 0 mm
02:44 3.7 °C 2.7 °C 1025.3 hPa NW 7.4 km/h 6.6 km/h 93 % 0 mm
02:49 3.6 °C 2.6 °C 1025.3 hPa NNW 5.6 km/h 5 km/h 93 % 0 mm
02:54 3.6 °C 2.6 °C 1025.3 hPa North 5.6 km/h 4.2 km/h 93 % 0 mm
02:59 3.5 °C 2.5 °C 1025.3 hPa NW 5.6 km/h 4.5 km/h 93 % 0 mm
03:04 3.6 °C 2.6 °C 1025.3 hPa North 7.4 km/h 5.8 km/h 93 % 0 mm
03:09 3.6 °C 2.6 °C 1025.3 hPa NNW 7.4 km/h 5.8 km/h 93 % 0 mm
03:14 3.6 °C 2.7 °C 1025.3 hPa NNW 8 km/h 6.9 km/h 94 % 0 mm
03:19 3.8 °C 2.9 °C 1025.3 hPa North 9.3 km/h 7.7 km/h 94 % 0 mm
03:24 4 °C 3.1 °C 1025.3 hPa North 11.1 km/h 8.7 km/h 94 % 0.25 mm
03:29 4.2 °C 3.3 °C 1025.3 hPa NW 13 km/h 8.4 km/h 94 % 0.25 mm
03:34 4.3 °C 3.4 °C 1025.3 hPa NNW 11.1 km/h 6.6 km/h 94 % 0.25 mm
03:39 4.4 °C 3.5 °C 1024.9 hPa NNW 9.3 km/h 6.3 km/h 94 % 0.25 mm
03:44 4.4 °C 3.5 °C 1025.3 hPa NNW 9.7 km/h 7.9 km/h 94 % 0.25 mm
03:49 4.3 °C 3.2 °C 1024.9 hPa NNW 11.1 km/h 8.5 km/h 93 % 0.25 mm
03:54 4.2 °C 3.2 °C 1024.9 hPa NNW 9.3 km/h 9.3 km/h 93 % 0.25 mm
03:59 4.2 °C 3.1 °C 1024.9 hPa NNW 9.7 km/h 7.6 km/h 93 % 0.25 mm
04:04 4 °C 2.9 °C 1024.9 hPa North 7.4 km/h 4.7 km/h 93 % 0.25 mm
04:09 3.9 °C 2.8 °C 1024.9 hPa NNW 5.6 km/h 5.1 km/h 93 % 0.25 mm
04:14 3.7 °C 2.7 °C 1024.9 hPa North 8 km/h 7.2 km/h 93 % 0.25 mm
04:19 3.6 °C 2.6 °C 1024.9 hPa North 8 km/h 6.4 km/h 93 % 0.25 mm
04:24 3.6 °C 2.6 °C 1024.9 hPa NNW 6.4 km/h 6.3 km/h 93 % 0 mm
04:29 3.5 °C 2.6 °C 1024.9 hPa North 7.4 km/h 3.7 km/h 94 % 0 mm
04:34 3.5 °C 2.6 °C 1024.9 hPa North 6.4 km/h 5.3 km/h 94 % 0 mm
04:39 3.5 °C 2.6 °C 1024.9 hPa North 7.4 km/h 4.8 km/h 94 % 0 mm
04:44 3.6 °C 2.7 °C 1024.9 hPa North 9.3 km/h 5.6 km/h 94 % 0 mm
04:49 3.6 °C 2.7 °C 1024.9 hPa NNW 7.4 km/h 5.8 km/h 94 % 0 mm
04:54 3.6 °C 2.7 °C 1024.9 hPa North 7.4 km/h 6.4 km/h 94 % 0 mm
04:59 3.6 °C 2.7 °C 1024.9 hPa North 7.4 km/h 5.3 km/h 94 % 0 mm
05:04 3.5 °C 2.6 °C 1024.9 hPa North 9.3 km/h 6.8 km/h 94 % 0 mm
05:09 3.5 °C 2.6 °C 1024.9 hPa North 11.1 km/h 6.8 km/h 94 % 0 mm
05:14 3.6 °C 2.7 °C 1024.9 hPa NNW 7.4 km/h 5.6 km/h 94 % 0 mm
05:19 3.6 °C 2.7 °C 1024.9 hPa North 7.4 km/h 5.3 km/h 94 % 0 mm
05:24 3.7 °C 2.8 °C 1024.9 hPa NNW 7.4 km/h 4.2 km/h 94 % 0 mm
05:29 3.7 °C 2.8 °C 1024.9 hPa NNW 3.7 km/h 2.7 km/h 94 % 0 mm
05:34 3.7 °C 2.8 °C 1024.9 hPa North 5.6 km/h 4.8 km/h 94 % 0 mm
05:39 3.7 °C 2.8 °C 1024.9 hPa NNW 5.6 km/h 5.3 km/h 94 % 0 mm
05:44 3.7 °C 2.8 °C 1025.3 hPa NNW 5.6 km/h 4.5 km/h 94 % 0 mm
05:49 3.7 °C 2.8 °C 1025.3 hPa NNW 5.6 km/h 4.8 km/h 94 % 0 mm
05:54 3.7 °C 2.8 °C 1025.3 hPa NNW 5.6 km/h 5.6 km/h 94 % 0 mm
05:59 3.8 °C 3.1 °C 1025.3 hPa North 7.4 km/h 5.8 km/h 95 % 0 mm
06:04 3.9 °C 3.2 °C 1025.3 hPa NNW 7.4 km/h 6.4 km/h 95 % 0 mm
06:09 4 °C 3.1 °C 1025.3 hPa NNW 9.3 km/h 4.5 km/h 94 % 0 mm
06:14 4.1 °C 3.4 °C 1025.3 hPa North 6.4 km/h 3.4 km/h 95 % 0 mm
06:19 4.2 °C 3.4 °C 1025.3 hPa North 5.6 km/h 4.5 km/h 95 % 0 mm
06:24 4.3 °C 3.6 °C 1025.3 hPa North 5.6 km/h 5 km/h 95 % 0 mm
06:29 4.5 °C 3.8 °C 1025.3 hPa NNW 5.6 km/h 4.2 km/h 95 % 0 mm
06:34 4.7 °C 3.9 °C 1025.6 hPa NNW 5.6 km/h 4.8 km/h 95 % 0 mm
06:39 4.8 °C 4.1 °C 1025.6 hPa North 5.6 km/h 3.5 km/h 95 % 0 mm
06:44 4.9 °C 4.2 °C 1025.6 hPa NNW 7.4 km/h 4.3 km/h 95 % 0 mm
06:49 5 °C 4.3 °C 1025.6 hPa NNW 8 km/h 5.1 km/h 95 % 0 mm
06:54 5 °C 4.1 °C 1025.6 hPa NNW 7.4 km/h 3.7 km/h 94 % 0 mm
06:59 5 °C 4.1 °C 1025.6 hPa North 6.4 km/h 5 km/h 94 % 0 mm
07:04 5.1 °C 4.2 °C 1025.6 hPa North 9.3 km/h 5.5 km/h 94 % 0 mm
07:09 5.1 °C 4.2 °C 1026 hPa NNW 9.7 km/h 9.2 km/h 94 % 0 mm
07:14 5.1 °C 4.2 °C 1026 hPa North 7.4 km/h 6.9 km/h 94 % 0 mm
07:19 5.1 °C 4.2 °C 1026 hPa North 11.1 km/h 7.4 km/h 94 % 0 mm
07:24 5 °C 4.1 °C 1026 hPa North 9.7 km/h 8 km/h 94 % 0 mm
07:29 5 °C 4.1 °C 1026 hPa North 13 km/h 9 km/h 94 % 0 mm
07:34 5 °C 4.1 °C 1026 hPa NNW 11.1 km/h 5 km/h 94 % 0 mm
07:39 5 °C 4.1 °C 1026 hPa North 11.1 km/h 4.7 km/h 94 % 0 mm
07:44 5.1 °C 4.2 °C 1026 hPa NNW 5.6 km/h 4 km/h 94 % 0 mm
07:49 5.1 °C 4.2 °C 1026 hPa North 7.4 km/h 5.1 km/h 94 % 0 mm
07:54 5.1 °C 4.2 °C 1026 hPa North 11.1 km/h 5 km/h 94 % 0 mm
07:59 5.2 °C 4.3 °C 1026 hPa NNW 7.4 km/h 6 km/h 94 % 0 mm
08:04 5.2 °C 4.3 °C 1026 hPa NNW 9.7 km/h 7.6 km/h 94 % 0 mm
08:09 5.2 °C 4.3 °C 1026 hPa North 9.3 km/h 5.8 km/h 94 % 0 mm
08:14 5.3 °C 4.2 °C 1026 hPa NNW 9.3 km/h 6.1 km/h 93 % 0 mm
08:19 5.2 °C 4.2 °C 1026.3 hPa North 7.4 km/h 6.1 km/h 93 % 0 mm
08:24 5.3 °C 4.2 °C 1026.3 hPa NNW 6.4 km/h 5.5 km/h 93 % 0 mm
08:29 5.3 °C 4.2 °C 1026.3 hPa North 9.3 km/h 5.8 km/h 93 % 0 mm
08:34 5.3 °C 4.3 °C 1026.3 hPa North 9.3 km/h 4.5 km/h 93 % 0 mm
08:39 5.4 °C 4.4 °C 1026.3 hPa NNW 9.7 km/h 7.1 km/h 93 % 0 mm
08:44 5.6 °C 4.6 °C 1026.6 hPa North 7.4 km/h 7.4 km/h 93 % 0 mm
08:49 5.7 °C 4.6 °C 1026.6 hPa NNW 9.3 km/h 5.3 km/h 93 % 0 mm
08:54 5.6 °C 4.6 °C 1026.6 hPa North 9.3 km/h 5.6 km/h 93 % 0 mm
08:59 5.6 °C 4.4 °C 1026.6 hPa NNW 7.4 km/h 4.5 km/h 92 % 0 mm
09:04 5.7 °C 4.4 °C 1026.6 hPa NNW 9.3 km/h 6.8 km/h 92 % 0 mm
09:09 5.7 °C 4.5 °C 1026.6 hPa NNW 9.7 km/h 8.4 km/h 92 % 0 mm
09:14 5.9 °C 4.7 °C 1026.6 hPa NNW 9.3 km/h 6 km/h 92 % 0 mm
09:19 6 °C 4.8 °C 1027 hPa NNW 9.3 km/h 7.2 km/h 92 % 0 mm
09:24 6 °C 4.8 °C 1027 hPa North 11.1 km/h 6.9 km/h 92 % 0 mm
09:29 6 °C 4.7 °C 1027 hPa North 14.8 km/h 8.9 km/h 91 % 0 mm
09:34 6 °C 4.7 °C 1027 hPa North 13 km/h 5.8 km/h 91 % 0 mm
09:39 5.9 °C 4.6 °C 1027 hPa North 11.1 km/h 4.5 km/h 91 % 0 mm
09:44 6.1 °C 4.7 °C 1027 hPa North 7.4 km/h 5.3 km/h 91 % 0 mm
09:49 6.3 °C 4.9 °C 1027 hPa North 9.3 km/h 7.1 km/h 91 % 0 mm
09:54 6.5 °C 5 °C 1027 hPa North 13 km/h 5.6 km/h 90 % 0 mm
09:59 6.7 °C 5.2 °C 1027 hPa North 13 km/h 10.3 km/h 90 % 0 mm
10:04 7 °C 5.3 °C 1027.3 hPa North 11.1 km/h 6.3 km/h 89 % 0 mm
10:09 7.2 °C 5.3 °C 1027.3 hPa North 13 km/h 4.2 km/h 88 % 0 mm
10:14 7.4 °C 5.4 °C 1027.3 hPa North 9.3 km/h 5.3 km/h 87 % 0 mm
10:19 7.7 °C 5.5 °C 1027.3 hPa North 9.3 km/h 7.2 km/h 86 % 0 mm
10:24 7.8 °C 5.3 °C 1027.3 hPa North 11.1 km/h 6.8 km/h 84 % 0 mm
10:29 8 °C 5.4 °C 1027.3 hPa North 12.9 km/h 11.1 km/h 84 % 0 mm
10:34 8.1 °C 5.2 °C 1027.3 hPa North 11.1 km/h 7.4 km/h 82 % 0 mm
10:39 8.1 °C 5.1 °C 1027.3 hPa North 7.4 km/h 5.1 km/h 81 % 0 mm
10:44 8.2 °C 5.3 °C 1027.3 hPa North 14.8 km/h 8.9 km/h 82 % 0 mm
10:49 8.3 °C 5.4 °C 1027.3 hPa North 13 km/h 9 km/h 82 % 0 mm
10:54 8.3 °C 5.2 °C 1027.3 hPa North 13 km/h 6.8 km/h 81 % 0 mm
10:59 8.2 °C 5.3 °C 1027.3 hPa North 7.4 km/h 3.5 km/h 82 % 0 mm
11:04 8.2 °C 5.2 °C 1027.3 hPa North 13 km/h 9.3 km/h 81 % 0 mm
11:09 8.2 °C 5.3 °C 1027.3 hPa North 11.1 km/h 8.7 km/h 82 % 0 mm
11:14 8.2 °C 5.3 °C 1027.3 hPa North 11.3 km/h 6.8 km/h 82 % 0 mm
11:19 8.3 °C 5.4 °C 1027.3 hPa North 9.3 km/h 6.1 km/h 82 % 0 mm
11:24 8.3 °C 5.4 °C 1027.3 hPa North 11.3 km/h 6.9 km/h 82 % 0 mm
11:29 8.4 °C 5.5 °C 1027 hPa North 9.3 km/h 7.7 km/h 82 % 0 mm
11:34 8.5 °C 5.6 °C 1027 hPa North 11.1 km/h 5.1 km/h 82 % 0 mm
11:39 8.5 °C 5.6 °C 1027 hPa North 9.7 km/h 5.3 km/h 82 % 0 mm
11:44 8.7 °C 6 °C 1027 hPa North 7.4 km/h 5.5 km/h 83 % 0 mm
11:49 9 °C 6.3 °C 1027 hPa North 7.4 km/h 7.1 km/h 83 % 0 mm
11:54 9.2 °C 6.3 °C 1026.6 hPa North 9.3 km/h 7.2 km/h 82 % 0 mm
11:59 9.4 °C 6.3 °C 1026.6 hPa North 9.7 km/h 6.3 km/h 81 % 0 mm
12:04 9.7 °C 6.7 °C 1026.6 hPa North 11.1 km/h 4.8 km/h 82 % 0 mm
12:09 9.9 °C 6.8 °C 1026.6 hPa North 9.3 km/h 7.1 km/h 81 % 0 mm
12:14 10.2 °C 6.9 °C 1026.6 hPa North 14.8 km/h 7.9 km/h 80 % 0 mm
12:19 10.2 °C 6.7 °C 1026.3 hPa North 11.1 km/h 7.1 km/h 79 % 0 mm
12:24 10.3 °C 7.1 °C 1026.3 hPa North 8 km/h 4.3 km/h 80 % 0 mm
12:29 10.7 °C 7.3 °C 1026.3 hPa North 9.3 km/h 5.3 km/h 80 % 0 mm
12:34 11.1 °C 7.6 °C 1026.3 hPa North 7.4 km/h 4.8 km/h 79 % 0 mm
12:39 11.2 °C 7.4 °C 1026.3 hPa North 9.3 km/h 5.5 km/h 78 % 0 mm
12:44 11.1 °C 7.4 °C 1026.3 hPa North 6.4 km/h 5.6 km/h 78 % 0 mm
12:49 11.2 °C 7.7 °C 1026 hPa North 7.4 km/h 5.5 km/h 79 % 0 mm
12:54 11.5 °C 7.8 °C 1026 hPa North 7.4 km/h 6.6 km/h 78 % 0 mm
12:59 11.7 °C 7.8 °C 1026 hPa North 9.3 km/h 7.2 km/h 77 % 0 mm
13:04 12 °C 7.9 °C 1026 hPa North 7.4 km/h 6.4 km/h 76 % 0 mm
13:09 12.1 °C 7.8 °C 1026 hPa North 7.4 km/h 6 km/h 75 % 0 mm
13:14 12.3 °C 8.2 °C 1026 hPa North 7.4 km/h 6.1 km/h 76 % 0 mm
13:19 12.6 °C 8.1 °C 1026 hPa North 13 km/h 8.9 km/h 74 % 0 mm
13:24 12.5 °C 8 °C 1026 hPa North 9.3 km/h 6 km/h 74 % 0 mm
13:29 12.4 °C 8.1 °C 1026 hPa North 8 km/h 7.7 km/h 75 % 0 mm
13:34 12.3 °C 8.2 °C 1026 hPa North 4.8 km/h 3.7 km/h 76 % 0 mm
13:39 12.1 °C 7.8 °C 1026 hPa North 5.6 km/h 3.9 km/h 75 % 0 mm
13:44 11.8 °C 7.7 °C 1026 hPa North 5.6 km/h 4.3 km/h 76 % 0 mm
13:49 11.8 °C 8.1 °C 1026 hPa North 5.6 km/h 5.1 km/h 78 % 0 mm
13:54 11.9 °C 8.2 °C 1026 hPa North 5.6 km/h 1.9 km/h 78 % 0 mm
13:59 11.8 °C 8.1 °C 1026 hPa North 8 km/h 6.3 km/h 78 % 0 mm
14:04 11.8 °C 8.1 °C 1026 hPa North 11.1 km/h 8 km/h 78 % 0 mm
14:09 11.6 °C 8.1 °C 1026 hPa North 8 km/h 6.4 km/h 79 % 0 mm
14:14 11.5 °C 8.2 °C 1026 hPa North 7.4 km/h 6.4 km/h 80 % 0 mm
14:19 11.4 °C 8.2 °C 1026 hPa North 7.4 km/h 5.8 km/h 81 % 0 mm
14:24 11.3 °C 8.3 °C 1026 hPa North 5.6 km/h 5.1 km/h 82 % 0 mm
14:29 11.1 °C 8.3 °C 1026 hPa NW 14.8 km/h 9.3 km/h 83 % 0 mm
14:34 10.9 °C 8.4 °C 1026 hPa NW 9.3 km/h 5 km/h 85 % 0 mm
14:39 10.8 °C 8.6 °C 1026 hPa NW 5.6 km/h 1.8 km/h 86 % 0 mm
14:44 10.8 °C 8.7 °C 1026 hPa North 5.6 km/h 3.5 km/h 87 % 0 mm
14:49 10.8 °C 8.7 °C 1026 hPa NW 3.7 km/h 3.1 km/h 87 % 0 mm
14:54 10.8 °C 8.9 °C 1026 hPa NW 4.8 km/h 2.4 km/h 88 % 0 mm
14:59 10.8 °C 8.9 °C 1026 hPa NW 5.6 km/h 3.2 km/h 88 % 0 mm
15:04 10.8 °C 8.9 °C 1026 hPa NW 5.6 km/h 3.2 km/h 88 % 0 mm
15:09 10.8 °C 8.9 °C 1026.3 hPa NW 3.7 km/h 1.8 km/h 88 % 0 mm
15:14 10.8 °C 8.9 °C 1026.3 hPa Calm     88 % 0 mm
15:19 10.7 °C 9 °C 1026.3 hPa Calm     89 % 0 mm
15:24 10.7 °C 9 °C 1026.3 hPa Calm     89 % 0 mm
15:29 10.7 °C 8.9 °C 1026.3 hPa Calm     89 % 0.25 mm
15:34 10.7 °C 9.2 °C 1026.3 hPa Calm     90 % 0.25 mm
15:39 10.7 °C 9.2 °C 1026.6 hPa Calm     90 % 0.51 mm
15:44 10.6 °C 9.1 °C 1026.6 hPa Calm     90 % 0.76 mm
15:49 10.5 °C 9.1 °C 1026.6 hPa NW 1.9 km/h 0.5 km/h 91 % 1.27 mm
15:54 10.5 °C 9.1 °C 1026.6 hPa NW 5.6 km/h 1 km/h 91 % 1.52 mm
15:59 10.4 °C 9.1 °C 1026.6 hPa NW 5.6 km/h 3.7 km/h 91 % 1.52 mm
16:04 10.4 °C 9.2 °C 1026.6 hPa NW 9.3 km/h 5.5 km/h 92 % 1.78 mm
16:09 10.4 °C 9.2 °C 1026.6 hPa North 6.4 km/h 4.5 km/h 92 % 1.78 mm
16:14 10.4 °C 9.2 °C 1026.6 hPa North 7.4 km/h 5.8 km/h 92 % 1.78 mm
16:19 10.4 °C 9.3 °C 1026.6 hPa WNW 8 km/h 6.9 km/h 93 % 1.78 mm
16:24 10.3 °C 9.3 °C 1026.6 hPa WNW 8 km/h 7.1 km/h 93 % 1.78 mm
16:29 10.3 °C 9.2 °C 1026.6 hPa WNW 9.3 km/h 5.6 km/h 93 % 1.52 mm
16:34 10.3 °C 9.2 °C 1026.6 hPa WNW 9.3 km/h 7.1 km/h 93 % 1.52 mm
16:39 10.2 °C 9.2 °C 1026.6 hPa WNW 7.4 km/h 4.5 km/h 93 % 1.52 mm
16:44 10.2 °C 9.2 °C 1026.6 hPa WNW 7.4 km/h 5.6 km/h 93 % 1.02 mm
16:49 10.2 °C 9.2 °C 1026.6 hPa WNW 5.6 km/h 2.7 km/h 93 % 0.51 mm
16:54 10.2 °C 9.2 °C 1026.6 hPa North 5.6 km/h 3.5 km/h 93 % 0.51 mm
16:59 10.2 °C 9.1 °C 1026.6 hPa WNW 5.6 km/h 3.5 km/h 93 % 0.51 mm
17:04 10.2 °C 9.1 °C 1026.6 hPa WNW 5.6 km/h 1.9 km/h 93 % 0 mm
17:09 10.1 °C 9.2 °C 1026.6 hPa WNW 3.7 km/h 1.9 km/h 94 % 0 mm
17:14 10.1 °C 9 °C 1027 hPa WNW 3.7 km/h 1.9 km/h 93 % 0 mm
17:19 10 °C 9.1 °C 1027 hPa WNW 5.6 km/h 1.9 km/h 94 % 0 mm
17:24 10 °C 8.9 °C 1027 hPa North 3.7 km/h   93 % 0 mm
17:29 9.9 °C 9 °C 1027 hPa Calm     94 % 0 mm
17:34 9.9 °C 9 °C 1027 hPa Calm     94 % 0 mm
17:39 10 °C 9.1 °C 1027 hPa WNW 1.6 km/h   94 % 0 mm
17:44 9.9 °C 9 °C 1027.3 hPa WNW 5.6 km/h 4.3 km/h 94 % 0 mm
17:49 9.9 °C 9 °C 1027.3 hPa South 18.5 km/h 13.7 km/h 94 % 0 mm
17:54 9.6 °C 8.6 °C 1027.3 hPa South 17.7 km/h 11.3 km/h 93 % 0 mm
17:59 9.3 °C 8.4 °C 1027.3 hPa South 18.5 km/h 6 km/h 94 % 0 mm
18:04 9.3 °C 8.4 °C 1027.3 hPa South 11.1 km/h 7.2 km/h 94 % 0 mm
18:09 9.2 °C 8.3 °C 1027.3 hPa South 16.7 km/h 7.7 km/h 94 % 0 mm
18:14 9.2 °C 8.3 °C 1027.7 hPa South 16.7 km/h 9.2 km/h 94 % 0 mm
18:19 9.1 °C 8.2 °C 1027.7 hPa South 9.7 km/h 3.9 km/h 94 % 0 mm
18:24 9.1 °C 8.2 °C 1027.7 hPa South 11.3 km/h 7.9 km/h 94 % 0 mm
18:29 9.1 °C 8.2 °C 1027.7 hPa South 11.1 km/h 8.7 km/h 94 % 0 mm
18:34 9.1 °C 8.2 °C 1027.7 hPa South 5.6 km/h 1.1 km/h 94 % 0 mm
18:39 9 °C 8.1 °C 1028 hPa South 3.7 km/h 4.3 km/h 94 % 0 mm
18:44 9 °C 8.1 °C 1028 hPa North 7.4 km/h 6.3 km/h 94 % 0 mm
18:49 8.9 °C 8.1 °C 1028 hPa South 8 km/h 3.2 km/h 94 % 0 mm
18:54 8.9 °C 8 °C 1028 hPa South 5.6 km/h 1.3 km/h 94 % 0 mm
18:59 8.9 °C 8.1 °C 1028 hPa South 3.7 km/h 0.3 km/h 94 % 0 mm
19:04 8.9 °C 8.1 °C 1028.3 hPa North 9.3 km/h 3.7 km/h 94 % 0 mm
19:09 8.9 °C 8 °C 1028.3 hPa South 5.6 km/h 6.1 km/h 94 % 0 mm
19:14 8.9 °C 8 °C 1028.3 hPa South 13 km/h 8 km/h 94 % 0 mm
19:19 8.9 °C 8 °C 1028.7 hPa South 14.8 km/h 10.6 km/h 94 % 0 mm
19:24 8.7 °C 7.8 °C 1028.7 hPa South 18.5 km/h 8.5 km/h 94 % 0 mm
19:29 8.7 °C 7.8 °C 1028.7 hPa South 9.3 km/h 6 km/h 94 % 0 mm
19:34 8.6 °C 7.7 °C 1028.7 hPa North 7.4 km/h 5 km/h 94 % 0 mm
19:39 8.6 °C 7.8 °C 1028.7 hPa South 9.7 km/h 7.2 km/h 95 % 0 mm
19:44 8.6 °C 7.8 °C 1028.7 hPa South 14.8 km/h 6.4 km/h 95 % 0 mm
19:49 8.6 °C 7.8 °C 1028.7 hPa North 13 km/h 8.4 km/h 95 % 0 mm
19:54 8.5 °C 7.7 °C 1028.7 hPa South 7.4 km/h 6.1 km/h 95 % 0 mm
19:59 8.6 °C 7.8 °C 1029 hPa South 5.6 km/h 5.1 km/h 95 % 0 mm
20:04 8.6 °C 7.8 °C 1029 hPa South 5.6 km/h 3.2 km/h 95 % 0 mm
20:09 8.6 °C 7.8 °C 1029 hPa South 9.3 km/h 5.8 km/h 95 % 0 mm
20:14 8.6 °C 7.8 °C 1029.3 hPa South 9.7 km/h 6.8 km/h 95 % 0 mm
20:19 8.5 °C 7.7 °C 1029.3 hPa North 13 km/h 4.2 km/h 95 % 0 mm
20:24 8.5 °C 7.7 °C 1029.3 hPa South 5.6 km/h 2.7 km/h 95 % 0 mm
20:29 8.5 °C 7.6 °C 1029.3 hPa South 9.3 km/h 4.5 km/h 94 % 0 mm
20:34 8.5 °C 7.6 °C 1029.3 hPa South 7.4 km/h 5.8 km/h 94 % 0 mm
20:39 8.4 °C 7.6 °C 1029.3 hPa South 5.6 km/h 3.7 km/h 94 % 0 mm
20:44 8.4 °C 7.5 °C 1029.3 hPa South 5.6 km/h 1.9 km/h 94 % 0 mm
20:49 8.4 °C 7.5 °C 1029.3 hPa Calm     94 % 0 mm
20:54 8.4 °C 7.5 °C 1029.3 hPa North 3.2 km/h 0.8 km/h 94 % 0 mm
20:59 8.3 °C 7.4 °C 1029.3 hPa South 5.6 km/h 3.1 km/h 94 % 0 mm
21:04 8.3 °C 7.4 °C 1029.3 hPa South 3.2 km/h 1.3 km/h 94 % 0 mm
21:09 8.3 °C 7.4 °C 1029.3 hPa South 1.9 km/h 0.2 km/h 94 % 0 mm
21:14 8.3 °C 7.4 °C 1029.3 hPa South 5.6 km/h 1.6 km/h 94 % 0 mm
21:19 8.3 °C 7.6 °C 1029.7 hPa South 5.6 km/h 4 km/h 95 % 0 mm
21:24 8.3 °C 7.4 °C 1029.3 hPa South 5.6 km/h 4.5 km/h 94 % 0 mm
21:29 8.1 °C 7.2 °C 1029.3 hPa South 5.6 km/h 4 km/h 94 % 0 mm
21:34 8 °C 7.1 °C 1029.3 hPa South 3.7 km/h 2.9 km/h 94 % 0 mm
21:39 7.9 °C 7 °C 1029.3 hPa South 1.9 km/h 1.6 km/h 94 % 0 mm
21:44 7.8 °C 6.9 °C 1029.3 hPa Calm     94 % 0 mm
21:49 7.7 °C 6.8 °C 1029.3 hPa Calm     94 % 0 mm
21:54 7.5 °C 6.6 °C 1029.3 hPa Calm     94 % 0 mm
21:59 7.4 °C 6.5 °C 1029.3 hPa South 3.7 km/h 2.6 km/h 94 % 0 mm
22:04 7.3 °C 6.4 °C 1029.3 hPa South 3.7 km/h 2.3 km/h 94 % 0 mm
22:09 7.3 °C 6.4 °C 1029.3 hPa South 1.9 km/h   94 % 0 mm
22:14 7.4 °C 6.5 °C 1029.3 hPa South 3.7 km/h 1.3 km/h 94 % 0 mm
22:19 7.4 °C 6.5 °C 1029.3 hPa South 3.7 km/h 1.8 km/h 94 % 0 mm
22:24 7.3 °C 6.4 °C 1029.3 hPa South 3.7 km/h 0.2 km/h 94 % 0 mm
22:29 7.3 °C 6.4 °C 1029.3 hPa South 1.6 km/h 1 km/h 94 % 0 mm
22:34 7.3 °C 6.6 °C 1029.3 hPa South 3.2 km/h 1.8 km/h 95 % 0 mm
22:39 7.3 °C 6.6 °C 1029.3 hPa South 1.6 km/h 2.3 km/h 95 % 0 mm
22:44 7.3 °C 6.6 °C 1029.3 hPa South 3.7 km/h 3.1 km/h 95 % 0 mm
22:49 7.4 °C 6.7 °C 1029.3 hPa South 5.6 km/h 3.5 km/h 95 % 0 mm
22:54 7.5 °C 6.8 °C 1029.3 hPa South 5.6 km/h 4.3 km/h 95 % 0 mm
22:59 7.5 °C 6.8 °C 1029.7 hPa South 5.6 km/h 3.1 km/h 95 % 0 mm
23:04 7.6 °C 6.8 °C 1029.7 hPa South 5.6 km/h 3.9 km/h 95 % 0 mm
23:09 7.6 °C 6.8 °C 1029.7 hPa South 9.3 km/h 8.4 km/h 95 % 0 mm
23:14 7.6 °C 6.9 °C 1029.7 hPa South 8 km/h 6 km/h 95 % 0 mm
23:19 7.6 °C 6.9 °C 1029.7 hPa South 11.1 km/h 6.1 km/h 95 % 0 mm
23:24 7.6 °C 6.8 °C 1029.7 hPa South 12.9 km/h 8.9 km/h 95 % 0 mm
23:29 7.4 °C 6.7 °C 1029.7 hPa South 8 km/h 6 km/h 95 % 0 mm
23:34 7.4 °C 6.7 °C 1029.7 hPa South 5.6 km/h 3.5 km/h 95 % 0 mm
23:39 7.4 °C 6.7 °C 1029.7 hPa South 9.3 km/h 5.6 km/h 95 % 0 mm
23:44 7.3 °C 6.6 °C 1029.7 hPa South 13 km/h 6.3 km/h 95 % 0 mm
23:49 7.3 °C 6.6 °C 1029.7 hPa South 9.7 km/h 7.2 km/h 95 % 0 mm
23:54 7.3 °C 6.6 °C 1029.7 hPa South 11.1 km/h 7.9 km/h 95 % 0 mm
23:59 7.3 °C 6.6 °C 1029.7 hPa South 5.6 km/h 4.5 km/h 95 % 0 mm
Ararat Weather
Compliments of Weather Underground - 2.25 mb
Click here to send mail.


ABOUT

Live weather data from Ararat, Victoria, Australia, 3377
Data uploaded from Cumulus every 5 minutes to Weather Underground.
This site then downloads the raw data for formatting and display.
Metric and imperial data can be displayed. Graphs and historical data available.
Includes Sun and Moon times and rain image live from BOM.

Check out Ararat Weather on Facebook, Twitter and Google +

Help support ongoing costs by checking out the ads





Follow @AraratWeather